createdAt,value
2019-05-03T00:00:24.891Z,5.16
2019-05-03T00:03:12.071Z,5.14
2019-05-03T00:05:54.126Z,5.05
2019-05-03T00:08:24.721Z,5.05
2019-05-03T00:10:55.176Z,5.13
2019-05-03T00:13:25.699Z,5.02
2019-05-03T00:16:04.797Z,4.98
2019-05-03T00:18:35.424Z,5.02
2019-05-03T00:21:05.906Z,4.90
2019-05-03T00:23:36.345Z,4.90
2019-05-03T00:26:06.884Z,4.90
2019-05-03T00:28:37.354Z,4.82
2019-05-03T00:31:07.819Z,4.81
2019-05-03T00:33:38.633Z,4.78
2019-05-03T00:36:24.393Z,4.72
2019-05-03T00:38:58.573Z,4.76
2019-05-03T00:41:29.026Z,4.71
2019-05-03T00:43:59.518Z,4.71
2019-05-03T00:46:30.038Z,4.65
2019-05-03T00:49:00.444Z,4.61
2019-05-03T00:51:31.808Z,4.62
2019-05-03T00:54:02.611Z,4.58
2019-05-03T00:56:33.079Z,4.58
2019-05-03T00:59:03.665Z,4.55
2019-05-03T01:01:34.173Z,4.54
2019-05-03T01:04:04.835Z,4.60
2019-05-03T01:06:35.352Z,4.54
2019-05-03T01:09:11.847Z,4.52
2019-05-03T01:11:42.454Z,4.54
2019-05-03T01:14:13.221Z,4.55
2019-05-03T01:16:43.757Z,4.51
2019-05-03T01:19:14.225Z,4.49
2019-05-03T01:21:44.735Z,4.50
2019-05-03T01:24:17.960Z,4.47
2019-05-03T01:26:47.464Z,4.43
2019-05-03T01:29:17.914Z,4.48
2019-05-03T01:31:48.401Z,4.39
2019-05-03T01:34:18.929Z,4.44
2019-05-03T01:36:49.401Z,4.38
2019-05-03T01:39:22.063Z,4.32
2019-05-03T01:41:52.086Z,4.31
2019-05-03T01:44:22.554Z,4.26
2019-05-03T01:46:54.753Z,4.19
2019-05-03T01:49:36.590Z,4.15
2019-05-03T01:52:27.012Z,4.24
2019-05-03T01:54:57.485Z,4.16
2019-05-03T01:57:27.990Z,4.16
2019-05-03T01:59:58.581Z,4.09
2019-05-03T02:02:42.071Z,4.08
2019-05-03T02:05:32.058Z,4.03
2019-05-03T02:08:02.687Z,3.93
2019-05-03T02:10:33.177Z,3.97
2019-05-03T02:13:04.177Z,3.93
2019-05-03T02:15:34.659Z,3.93
2019-05-03T02:18:05.128Z,3.88
2019-05-03T02:20:35.663Z,3.91
2019-05-03T02:23:06.188Z,3.85
2019-05-03T02:25:36.647Z,3.95
2019-05-03T02:28:07.317Z,3.86
2019-05-03T02:30:37.767Z,3.91
2019-05-03T02:33:08.272Z,3.94
2019-05-03T02:35:38.749Z,4.03
2019-05-03T02:38:12.799Z,4.02
2019-05-03T02:40:42.895Z,3.98
2019-05-03T02:43:38.749Z,3.98
2019-05-03T02:46:28.106Z,3.94
2019-05-03T02:49:08.244Z,3.97
2019-05-03T02:51:38.731Z,4.00
2019-05-03T02:54:09.283Z,3.93
2019-05-03T02:56:39.805Z,3.96
2019-05-03T02:59:10.291Z,3.96
2019-05-03T03:01:41.287Z,4.03
2019-05-03T03:04:12.153Z,4.01
2019-05-03T03:06:45.939Z,3.95
2019-05-03T03:09:19.601Z,3.92
2019-05-03T03:11:55.712Z,3.98
2019-05-03T03:14:31.102Z,3.96
2019-05-03T03:17:06.623Z,3.95
2019-05-03T03:19:40.701Z,3.98
2019-05-03T03:22:15.812Z,3.88
2019-05-03T03:24:49.626Z,3.84
2019-05-03T03:27:25.904Z,3.73
2019-05-03T03:30:29.320Z,3.73
2019-05-03T03:32:59.202Z,3.67
2019-05-03T03:35:32.551Z,3.77
2019-05-03T03:38:05.603Z,3.70
2019-05-03T03:40:35.888Z,3.65
2019-05-03T03:43:08.879Z,3.64
2019-05-03T03:45:41.414Z,3.71
2019-05-03T03:48:15.778Z,3.76
2019-05-03T03:50:50.350Z,3.70
2019-05-03T03:53:26.592Z,3.69
2019-05-03T03:55:59.703Z,3.76
2019-05-03T03:58:30.246Z,3.72
2019-05-03T04:01:00.730Z,3.77
2019-05-03T04:03:31.210Z,3.70
2019-05-03T04:06:02.156Z,3.70
2019-05-03T04:08:35.841Z,3.72
2019-05-03T04:11:06.284Z,3.76
2019-05-03T04:13:38.936Z,3.82
2019-05-03T04:16:27.955Z,3.85
2019-05-03T04:19:06.071Z,3.84
2019-05-03T04:21:36.627Z,3.88
2019-05-03T04:24:07.118Z,3.85
2019-05-03T04:26:38.323Z,3.88
2019-05-03T04:29:08.839Z,3.92
2019-05-03T04:31:39.328Z,3.87
2019-05-03T04:34:09.854Z,3.88
2019-05-03T04:36:40.311Z,3.93
2019-05-03T04:39:10.807Z,3.92
2019-05-03T04:41:41.320Z,4.00
2019-05-03T04:44:11.819Z,4.06
2019-05-03T04:46:42.304Z,4.13
2019-05-03T04:49:15.153Z,4.18
2019-05-03T04:51:46.443Z,4.27
2019-05-03T04:54:25.743Z,4.32
2019-05-03T04:56:56.415Z,4.36
2019-05-03T04:59:26.888Z,4.50
2019-05-03T05:01:57.454Z,4.54
2019-05-03T05:04:27.917Z,4.58
2019-05-03T05:06:58.414Z,4.63
2019-05-03T05:09:29.788Z,4.73
2019-05-03T05:12:00.285Z,4.73
2019-05-03T05:14:30.777Z,4.86
2019-05-03T05:17:01.359Z,4.84
2019-05-03T05:19:38.717Z,4.89
2019-05-03T05:22:11.319Z,4.87
2019-05-03T05:24:41.783Z,4.92
2019-05-03T05:27:27.202Z,4.96
2019-05-03T05:29:58.530Z,5.01
2019-05-03T05:32:29.054Z,5.11
2019-05-03T05:34:59.764Z,5.18
2019-05-03T05:37:30.330Z,5.24
2019-05-03T05:40:00.795Z,5.24
2019-05-03T05:42:31.422Z,5.32
2019-05-03T05:45:01.899Z,5.36
2019-05-03T05:47:40.887Z,5.44
2019-05-03T05:50:25.962Z,5.44
2019-05-03T05:52:56.459Z,5.56
2019-05-03T05:55:45.814Z,5.74
2019-05-03T05:58:50.572Z,5.82
2019-05-03T06:01:42.858Z,5.90
2019-05-03T06:04:15.271Z,6.05
2019-05-03T06:07:04.650Z,6.24
2019-05-03T06:09:59.799Z,6.28
2019-05-03T06:12:42.710Z,6.38
2019-05-03T06:15:34.609Z,6.35
2019-05-03T06:18:09.644Z,6.45
2019-05-03T06:21:02.057Z,6.57
2019-05-03T06:23:37.662Z,6.50
2019-05-03T06:26:27.051Z,6.49
2019-05-03T06:28:57.955Z,6.66
2019-05-03T06:31:38.095Z,6.67
2019-05-03T06:34:08.582Z,6.74
2019-05-03T06:36:40.435Z,6.75
2019-05-03T06:39:11.001Z,6.88
2019-05-03T06:41:41.489Z,6.89
2019-05-03T06:44:12.025Z,6.93
2019-05-03T06:46:47.260Z,7.00
2019-05-03T06:49:17.874Z,6.94
2019-05-03T06:51:49.861Z,6.85
2019-05-03T06:54:25.439Z,6.91
2019-05-03T06:56:52.785Z,6.95
2019-05-03T06:59:28.859Z,7.00
2019-05-03T07:02:07.000Z,7.08
2019-05-03T07:04:41.443Z,7.09
2019-05-03T07:07:29.698Z,7.25
2019-05-03T07:10:19.123Z,7.30
2019-05-03T07:12:59.221Z,7.34
2019-05-03T07:15:30.536Z,7.39
2019-05-03T07:18:01.108Z,7.39
2019-05-03T07:20:44.619Z,7.51
2019-05-03T07:23:15.558Z,7.59
2019-05-03T07:25:46.353Z,7.90
2019-05-03T07:28:16.811Z,7.98
2019-05-03T07:30:47.272Z,7.83
2019-05-03T07:33:36.707Z,7.76
2019-05-03T07:36:07.319Z,7.62
2019-05-03T07:38:37.750Z,7.55
2019-05-03T07:41:08.387Z,7.70
2019-05-03T07:43:39.023Z,7.75
2019-05-03T07:46:09.541Z,7.90
2019-05-03T07:48:40.102Z,8.08
2019-05-03T07:51:10.599Z,8.16
2019-05-03T07:53:41.117Z,8.17
2019-05-03T07:56:15.500Z,7.93
2019-05-03T07:59:00.037Z,7.83
2019-05-03T08:01:29.592Z,8.01
2019-05-03T08:04:00.217Z,8.18
2019-05-03T08:06:30.717Z,8.25
2019-05-03T08:09:01.215Z,8.43
2019-05-03T08:11:31.746Z,8.65
2019-05-03T08:14:02.296Z,8.69
2019-05-03T08:16:35.046Z,8.71
2019-05-03T08:19:05.571Z,8.77
2019-05-03T08:21:38.529Z,8.67
2019-05-03T08:24:08.566Z,8.76
2019-05-03T08:26:39.060Z,8.68
2019-05-03T08:29:17.015Z,8.72
2019-05-03T08:32:19.181Z,8.77
2019-05-03T08:35:12.051Z,8.63
2019-05-03T08:37:51.421Z,8.58
2019-05-03T08:40:24.567Z,8.24
2019-05-03T08:42:55.195Z,7.67
2019-05-03T08:45:25.769Z,7.30
2019-05-03T08:47:57.245Z,7.15
2019-05-03T08:50:27.803Z,7.07
2019-05-03T08:52:59.157Z,7.19
2019-05-03T08:55:31.318Z,7.46
2019-05-03T08:58:02.017Z,7.64
2019-05-03T09:00:35.280Z,7.83
2019-05-03T09:03:05.936Z,7.90
2019-05-03T09:05:36.435Z,8.17
2019-05-03T09:08:07.097Z,8.50
2019-05-03T09:10:46.741Z,8.50
2019-05-03T09:13:19.010Z,8.41
2019-05-03T09:15:50.302Z,7.99
2019-05-03T09:18:20.808Z,7.62
2019-05-03T09:20:51.381Z,7.42
2019-05-03T09:23:23.954Z,7.40
2019-05-03T09:25:54.801Z,7.41
2019-05-03T09:28:28.935Z,7.49
2019-05-03T09:30:57.908Z,7.76
2019-05-03T09:33:28.476Z,7.79
2019-05-03T09:35:59.008Z,8.00
2019-05-03T09:38:29.628Z,8.18
2019-05-03T09:41:00.263Z,8.46
2019-05-03T09:43:30.957Z,8.70
2019-05-03T09:46:01.510Z,8.99
2019-05-03T09:48:34.546Z,8.86
2019-05-03T09:51:05.174Z,8.77
2019-05-03T09:53:44.632Z,9.05
2019-05-03T09:56:15.574Z,9.09
2019-05-03T09:58:46.237Z,8.97
2019-05-03T10:01:16.875Z,8.82
2019-05-03T10:03:47.474Z,8.66
2019-05-03T10:06:18.308Z,8.86
2019-05-03T10:08:48.932Z,9.04
2019-05-03T10:11:19.510Z,9.10
2019-05-03T10:13:50.043Z,8.77
2019-05-03T10:16:22.196Z,8.53
2019-05-03T10:18:52.767Z,8.34
2019-05-03T10:21:29.436Z,8.26
2019-05-03T10:23:59.976Z,8.18
2019-05-03T10:26:30.511Z,7.97
2019-05-03T10:29:01.131Z,8.20
2019-05-03T10:31:39.305Z,8.25
2019-05-03T10:34:09.893Z,8.54
2019-05-03T10:36:40.762Z,8.75
2019-05-03T10:39:11.443Z,9.12
2019-05-03T10:41:41.926Z,8.94
2019-05-03T10:44:12.404Z,9.30
2019-05-03T10:46:45.101Z,9.20
2019-05-03T10:49:15.471Z,8.97
2019-05-03T10:51:50.965Z,8.16
2019-05-03T10:54:21.580Z,7.74
2019-05-03T10:57:00.796Z,8.18
2019-05-03T10:59:32.128Z,8.55
2019-05-03T11:02:15.456Z,8.74
2019-05-03T11:04:46.575Z,8.49
2019-05-03T11:07:17.241Z,8.63
2019-05-03T11:09:52.244Z,8.39
2019-05-03T11:12:20.525Z,8.92
2019-05-03T11:14:51.128Z,9.32
2019-05-03T11:17:21.797Z,9.84
2019-05-03T11:19:54.606Z,9.77
2019-05-03T11:22:26.027Z,9.84
2019-05-03T11:24:56.671Z,9.48
2019-05-03T11:27:50.194Z,9.64
2019-05-03T11:30:20.785Z,9.49
2019-05-03T11:33:05.014Z,9.44
2019-05-03T11:35:57.733Z,9.37
2019-05-03T11:38:37.390Z,9.62
2019-05-03T11:41:08.011Z,9.53
2019-05-03T11:43:38.589Z,9.50
2019-05-03T11:46:09.280Z,9.74
2019-05-03T11:48:39.761Z,9.79
2019-05-03T11:51:10.348Z,9.60
2019-05-03T11:53:41.000Z,9.46
2019-05-03T11:56:12.231Z,9.84
2019-05-03T11:58:42.864Z,9.50
2019-05-03T12:01:20.152Z,9.73
2019-05-03T12:03:52.389Z,10.06
2019-05-03T12:06:24.865Z,9.51
2019-05-03T12:08:55.450Z,9.37
2019-05-03T12:11:27.725Z,9.42
2019-05-03T12:14:11.803Z,9.54
2019-05-03T12:17:14.408Z,9.64
2019-05-03T12:19:26.140Z,9.90
2019-05-03T12:21:54.063Z,9.62
2019-05-03T12:24:26.738Z,9.47
2019-05-03T12:26:57.184Z,9.07
2019-05-03T12:29:27.869Z,9.05
2019-05-03T12:31:58.365Z,9.29
2019-05-03T12:34:28.890Z,9.50
2019-05-03T12:36:59.468Z,9.89
2019-05-03T12:39:30.801Z,10.04
2019-05-03T12:42:01.566Z,10.51
2019-05-03T12:44:32.090Z,11.19
2019-05-03T12:47:02.864Z,11.53
2019-05-03T12:49:35.853Z,10.78
2019-05-03T12:52:06.879Z,9.94
2019-05-03T12:54:37.440Z,9.29
2019-05-03T12:57:08.002Z,9.20
2019-05-03T12:59:55.645Z,10.07
2019-05-03T13:02:45.504Z,12.24
2019-05-03T13:05:16.054Z,12.28
2019-05-03T13:07:51.491Z,12.01
2019-05-03T13:10:23.694Z,10.70
2019-05-03T13:12:55.993Z,9.94
2019-05-03T13:15:26.749Z,9.42
2019-05-03T13:17:57.461Z,9.01
2019-05-03T13:20:28.014Z,9.14
2019-05-03T13:22:58.631Z,9.56
2019-05-03T13:25:29.263Z,11.08
2019-05-03T13:27:59.846Z,13.69
2019-05-03T13:30:31.482Z,14.88
2019-05-03T13:33:02.049Z,16.02
2019-05-03T13:35:32.565Z,14.15
2019-05-03T13:38:03.075Z,12.93
2019-05-03T13:40:35.685Z,10.81
2019-05-03T13:43:06.605Z,9.13
2019-05-03T13:45:37.365Z,8.82
2019-05-03T13:48:07.904Z,8.65
2019-05-03T13:50:38.440Z,8.44
2019-05-03T13:53:09.087Z,8.56
2019-05-03T13:55:39.664Z,8.49
2019-05-03T13:58:10.259Z,8.65
2019-05-03T14:00:40.815Z,9.07
2019-05-03T14:03:11.357Z,9.49
2019-05-03T14:05:41.938Z,9.92
2019-05-03T14:08:12.504Z,9.64
2019-05-03T14:10:45.584Z,9.76
2019-05-03T14:13:15.559Z,9.91
2019-05-03T14:15:46.271Z,11.17
2019-05-03T14:18:16.892Z,12.56
2019-05-03T14:21:05.147Z,11.98
2019-05-03T14:23:54.746Z,12.96
2019-05-03T14:26:25.308Z,12.73
2019-05-03T14:28:55.859Z,12.65
2019-05-03T14:31:26.463Z,12.81
2019-05-03T14:33:57.000Z,12.02
2019-05-03T14:36:35.823Z,12.16
2019-05-03T14:39:10.440Z,12.03
2019-05-03T14:41:41.350Z,11.88
2019-05-03T14:44:14.871Z,11.88
2019-05-03T14:46:45.863Z,12.08
2019-05-03T14:49:16.596Z,13.28
2019-05-03T14:51:47.177Z,12.00
2019-05-03T14:54:18.178Z,11.57
2019-05-03T14:56:56.018Z,11.23
2019-05-03T14:59:48.624Z,10.50
2019-05-03T15:02:40.050Z,10.23
2019-05-03T15:05:00.735Z,10.40
2019-05-03T15:07:31.359Z,10.03
2019-05-03T15:10:01.913Z,10.01
2019-05-03T15:12:32.422Z,9.90
2019-05-03T15:15:05.232Z,9.88
2019-05-03T15:17:35.339Z,9.82
2019-05-03T15:20:06.336Z,10.00
2019-05-03T15:22:36.913Z,10.11
2019-05-03T15:25:07.886Z,10.35
2019-05-03T15:27:38.564Z,10.51
2019-05-03T15:30:09.633Z,10.74
2019-05-03T15:32:53.866Z,11.78
2019-05-03T15:35:15.078Z,12.78
2019-05-03T15:37:45.532Z,13.85
2019-05-03T15:40:16.416Z,14.26
2019-05-03T15:42:54.613Z,13.99
2019-05-03T15:45:54.516Z,12.86
2019-05-03T15:48:28.231Z,11.99
2019-05-03T15:51:01.576Z,11.57
2019-05-03T15:53:32.284Z,11.18
2019-05-03T15:56:02.850Z,11.29
2019-05-03T15:58:33.525Z,11.04
2019-05-03T16:01:04.722Z,10.51
2019-05-03T16:03:35.797Z,10.40
2019-05-03T16:06:06.790Z,10.34
2019-05-03T16:08:40.015Z,10.09
2019-05-03T16:11:11.007Z,10.23
2019-05-03T16:13:44.816Z,10.16
2019-05-03T16:16:16.866Z,9.63
2019-05-03T16:18:47.527Z,9.63
2019-05-03T16:21:25.060Z,9.85
2019-05-03T16:24:04.964Z,9.93
2019-05-03T16:29:28.513Z,9.71
2019-05-03T16:32:02.428Z,9.63
2019-05-03T16:34:56.613Z,9.58
2019-05-03T16:37:30.381Z,9.63
2019-05-03T16:40:01.658Z,9.32
2019-05-03T16:42:36.076Z,9.35
2019-05-03T16:45:06.952Z,9.46
2019-05-03T16:47:37.598Z,9.35
2019-05-03T16:50:08.422Z,9.20
2019-05-03T16:52:39.343Z,8.97
2019-05-03T16:55:10.007Z,8.89
2019-05-03T16:57:40.526Z,8.76
2019-05-03T17:00:11.509Z,8.68
2019-05-03T17:02:41.980Z,8.62
2019-05-03T17:05:37.466Z,8.62
2019-05-03T17:08:25.081Z,8.52
2019-05-03T17:10:57.530Z,7.16
2019-05-03T17:13:28.006Z,6.83
2019-05-03T17:15:58.652Z,6.35
2019-05-03T17:18:29.242Z,5.69
2019-05-03T17:20:59.736Z,5.43
2019-05-03T17:23:30.245Z,5.27
2019-05-03T17:26:00.869Z,5.13
2019-05-03T17:28:31.453Z,5.10
2019-05-03T17:31:02.110Z,5.19
2019-05-03T17:33:34.675Z,5.16
2019-05-03T17:36:05.227Z,5.22
2019-05-03T17:38:35.879Z,5.22
2019-05-03T17:41:31.651Z,5.28
2019-05-03T17:44:09.113Z,5.23
2019-05-03T17:46:39.878Z,5.25
2019-05-03T17:49:10.461Z,5.31
2019-05-03T17:51:58.123Z,5.39
2019-05-03T17:54:54.297Z,5.37
2019-05-03T17:57:35.008Z,5.42
2019-05-03T18:00:41.377Z,5.49
2019-05-03T18:03:14.242Z,5.58
2019-05-03T18:05:50.286Z,5.58
2019-05-03T18:08:38.833Z,5.60
2019-05-03T18:11:12.376Z,5.62
2019-05-03T18:13:44.590Z,5.73
2019-05-03T18:16:15.420Z,5.68
2019-05-03T18:18:46.048Z,5.61
2019-05-03T18:21:16.697Z,5.62
2019-05-03T18:23:47.230Z,5.53
2019-05-03T18:26:17.794Z,5.51
2019-05-03T18:28:48.393Z,5.59
2019-05-03T18:31:20.234Z,5.46
2019-05-03T18:33:50.833Z,5.23
2019-05-03T18:36:21.362Z,4.87
2019-05-03T18:38:51.890Z,4.53
2019-05-03T18:41:22.735Z,4.10
2019-05-03T18:44:24.518Z,4.03
2019-05-03T18:47:40.859Z,3.98
2019-05-03T18:50:14.043Z,3.97
2019-05-03T18:52:44.921Z,3.94
2019-05-03T18:55:15.698Z,4.10
2019-05-03T18:57:46.263Z,4.03
2019-05-03T19:00:18.689Z,3.97
2019-05-03T19:02:49.227Z,3.97
2019-05-03T19:05:21.501Z,3.91
2019-05-03T19:08:11.135Z,3.82
2019-05-03T19:10:49.610Z,3.83
2019-05-03T19:13:32.805Z,3.80
2019-05-03T19:16:11.080Z,3.85
2019-05-03T19:18:41.827Z,3.83
2019-05-03T19:21:14.946Z,3.96
2019-05-03T19:23:44.899Z,3.90
2019-05-03T19:26:15.450Z,3.87
2019-05-03T19:28:45.954Z,3.89
2019-05-03T19:31:16.612Z,3.90
2019-05-03T19:33:47.223Z,3.95
2019-05-03T19:36:17.811Z,3.96
2019-05-03T19:38:48.458Z,4.09
2019-05-03T19:41:19.039Z,4.06
2019-05-03T19:43:49.578Z,4.07
2019-05-03T19:46:20.154Z,3.85
2019-05-03T19:48:50.848Z,3.90
2019-05-03T19:51:21.407Z,3.87
2019-05-03T19:53:55.781Z,3.99
2019-05-03T19:56:26.336Z,3.98
2019-05-03T19:59:04.625Z,4.05
2019-05-03T20:01:57.556Z,4.00
2019-05-03T20:04:43.166Z,3.98
2019-05-03T20:07:41.978Z,3.98
2019-05-03T20:10:14.650Z,4.05
2019-05-03T20:12:45.310Z,4.02
2019-05-03T20:15:15.853Z,4.10
2019-05-03T20:17:56.527Z,4.00
2019-05-03T20:20:18.757Z,3.95
2019-05-03T20:22:49.260Z,4.00
2019-05-03T20:25:20.000Z,4.07
2019-05-03T20:27:51.655Z,4.07
2019-05-03T20:30:22.261Z,3.95
2019-05-03T20:32:52.899Z,3.95
2019-05-03T20:35:25.128Z,3.97
2019-05-03T20:37:55.856Z,4.02
2019-05-03T20:40:26.416Z,3.90
2019-05-03T20:43:09.466Z,3.90
2019-05-03T20:45:57.778Z,3.99
2019-05-03T20:48:28.311Z,4.04
2019-05-03T20:50:58.991Z,4.09
2019-05-03T20:53:29.651Z,4.18
2019-05-03T20:56:00.161Z,4.03
2019-05-03T20:58:30.715Z,4.11
2019-05-03T21:01:01.296Z,4.14
2019-05-03T21:03:31.781Z,4.06
2019-05-03T21:06:03.102Z,4.00
2019-05-03T21:08:34.764Z,4.10
2019-05-03T21:11:05.566Z,4.16
2019-05-03T21:13:41.909Z,4.23
2019-05-03T21:16:29.933Z,4.07
2019-05-03T21:19:15.686Z,3.96
2019-05-03T21:21:51.905Z,3.86
2019-05-03T21:24:28.582Z,3.79
2019-05-03T21:26:59.098Z,3.77
2019-05-03T21:29:29.572Z,3.74
2019-05-03T21:32:00.059Z,3.68
2019-05-03T21:34:30.572Z,3.64
2019-05-03T21:37:01.162Z,3.64
2019-05-03T21:39:31.664Z,3.70
2019-05-03T21:42:02.242Z,3.62
2019-05-03T21:44:34.396Z,3.60
2019-05-03T21:47:26.676Z,3.58
2019-05-03T21:49:58.219Z,3.46
2019-05-03T21:52:28.701Z,3.45
2019-05-03T21:54:59.256Z,3.34
2019-05-03T21:57:29.772Z,3.31
2019-05-03T22:00:00.401Z,3.35
2019-05-03T22:02:30.976Z,3.40
2019-05-03T22:05:01.463Z,3.37
2019-05-03T22:07:31.973Z,3.41
2019-05-03T22:10:02.493Z,3.38
2019-05-03T22:12:33.052Z,3.38
2019-05-03T22:15:28.850Z,3.28
2019-05-03T22:18:30.173Z,3.24
2019-05-03T22:21:28.965Z,3.22
2019-05-03T22:24:17.200Z,3.16
2019-05-03T22:27:07.012Z,3.19
2019-05-03T22:29:37.593Z,3.06
2019-05-03T22:32:08.058Z,3.06
2019-05-03T22:34:38.571Z,3.10
2019-05-03T22:37:09.063Z,3.03
2019-05-03T22:39:39.527Z,2.97
2019-05-03T22:42:10.147Z,2.92
2019-05-03T22:44:40.619Z,2.95
2019-05-03T22:47:11.122Z,3.00
2019-05-03T22:49:41.578Z,2.97
2019-05-03T22:52:12.131Z,2.87
2019-05-03T22:54:42.596Z,2.90
2019-05-03T22:57:15.174Z,3.01
2019-05-03T22:59:45.446Z,3.03
2019-05-03T23:02:17.212Z,3.13
2019-05-03T23:04:47.833Z,3.09
2019-05-03T23:07:18.269Z,3.08
2019-05-03T23:09:48.739Z,3.02
2019-05-03T23:12:19.248Z,3.10
2019-05-03T23:14:49.739Z,3.00
2019-05-03T23:17:20.262Z,3.03
2019-05-03T23:19:56.586Z,2.97
2019-05-03T23:22:29.626Z,3.07
2019-05-03T23:25:00.127Z,3.07
2019-05-03T23:27:30.597Z,3.17
2019-05-03T23:30:01.119Z,3.15
2019-05-03T23:32:31.681Z,3.10
2019-05-03T23:35:02.199Z,3.06
2019-05-03T23:37:34.452Z,2.94
2019-05-03T23:40:05.497Z,2.96
2019-05-03T23:42:35.994Z,3.00
2019-05-03T23:45:06.624Z,2.92
2019-05-03T23:47:41.179Z,2.93
2019-05-03T23:50:15.882Z,2.98
2019-05-03T23:52:46.620Z,2.92
2019-05-03T23:55:29.161Z,2.92
2019-05-03T23:57:59.657Z,2.93
